sensor_id;sensor_type;location;lat;lon;timestamp;P1;durP1;ratioP1;P2;durP2;ratioP2
15114;SDS011;7658;51.456;7.622;2022-12-10T00:01:36;62.80;;;35.27;;
15114;SDS011;7658;51.456;7.622;2022-12-10T00:04:03;62.60;;;34.07;;
15114;SDS011;7658;51.456;7.622;2022-12-10T00:06:30;78.80;;;39.10;;
15114;SDS011;7658;51.456;7.622;2022-12-10T00:08:58;79.83;;;41.13;;
15114;SDS011;7658;51.456;7.622;2022-12-10T00:11:25;76.97;;;39.73;;
15114;SDS011;7658;51.456;7.622;2022-12-10T00:13:51;60.07;;;35.37;;
15114;SDS011;7658;51.456;7.622;2022-12-10T00:16:18;53.93;;;33.77;;
15114;SDS011;7658;51.456;7.622;2022-12-10T00:18:46;52.47;;;31.73;;
15114;SDS011;7658;51.456;7.622;2022-12-10T00:21:14;61.73;;;34.50;;
15114;SDS011;7658;51.456;7.622;2022-12-10T00:23:41;55.53;;;33.00;;
15114;SDS011;7658;51.456;7.622;2022-12-10T00:26:11;53.43;;;32.43;;
15114;SDS011;7658;51.456;7.622;2022-12-10T00:28:38;54.87;;;33.53;;
15114;SDS011;7658;51.456;7.622;2022-12-10T00:31:05;55.87;;;33.47;;
15114;SDS011;7658;51.456;7.622;2022-12-10T00:33:33;60.93;;;35.60;;
15114;SDS011;7658;51.456;7.622;2022-12-10T00:36:07;61.27;;;34.73;;
15114;SDS011;7658;51.456;7.622;2022-12-10T00:38:35;58.03;;;35.33;;
15114;SDS011;7658;51.456;7.622;2022-12-10T00:41:02;59.03;;;33.77;;
15114;SDS011;7658;51.456;7.622;2022-12-10T00:43:28;55.33;;;33.33;;
15114;SDS011;7658;51.456;7.622;2022-12-10T00:45:54;50.90;;;32.07;;
15114;SDS011;7658;51.456;7.622;2022-12-10T00:48:20;57.00;;;33.80;;
15114;SDS011;7658;51.456;7.622;2022-12-10T00:50:56;53.90;;;33.77;;
15114;SDS011;7658;51.456;7.622;2022-12-10T00:53:27;60.80;;;36.40;;
15114;SDS011;7658;51.456;7.622;2022-12-10T00:55:54;65.20;;;36.73;;
15114;SDS011;7658;51.456;7.622;2022-12-10T00:58:21;59.63;;;35.43;;
15114;SDS011;7658;51.456;7.622;2022-12-10T01:00:47;60.97;;;36.07;;
15114;SDS011;7658;51.456;7.622;2022-12-10T01:03:14;61.30;;;36.30;;
15114;SDS011;7658;51.456;7.622;2022-12-10T01:05:40;63.37;;;36.07;;
15114;SDS011;7658;51.456;7.622;2022-12-10T01:08:06;65.63;;;36.73;;
15114;SDS011;7658;51.456;7.622;2022-12-10T01:10:32;61.47;;;36.87;;
15114;SDS011;7658;51.456;7.622;2022-12-10T01:12:58;62.93;;;37.33;;
15114;SDS011;7658;51.456;7.622;2022-12-10T01:15:24;61.07;;;36.57;;
15114;SDS011;7658;51.456;7.622;2022-12-10T01:17:51;73.50;;;39.27;;
15114;SDS011;7658;51.456;7.622;2022-12-10T01:20:16;62.27;;;37.57;;
15114;SDS011;7658;51.456;7.622;2022-12-10T01:22:42;68.70;;;38.43;;
15114;SDS011;7658;51.456;7.622;2022-12-10T01:25:08;64.53;;;36.77;;
15114;SDS011;7658;51.456;7.622;2022-12-10T01:27:34;62.70;;;37.13;;
15114;SDS011;7658;51.456;7.622;2022-12-10T01:29:59;62.90;;;35.63;;
15114;SDS011;7658;51.456;7.622;2022-12-10T01:32:25;65.50;;;36.90;;
15114;SDS011;7658;51.456;7.622;2022-12-10T01:34:51;63.17;;;37.83;;
15114;SDS011;7658;51.456;7.622;2022-12-10T01:37:16;59.43;;;36.47;;
15114;SDS011;7658;51.456;7.622;2022-12-10T01:39:42;66.90;;;37.90;;
15114;SDS011;7658;51.456;7.622;2022-12-10T01:42:08;67.87;;;38.00;;
15114;SDS011;7658;51.456;7.622;2022-12-10T01:47:08;60.03;;;35.17;;
15114;SDS011;7658;51.456;7.622;2022-12-10T01:49:36;67.07;;;37.40;;
15114;SDS011;7658;51.456;7.622;2022-12-10T01:52:04;62.10;;;37.37;;
15114;SDS011;7658;51.456;7.622;2022-12-10T01:54:34;57.83;;;34.07;;
15114;SDS011;7658;51.456;7.622;2022-12-10T01:57:05;64.97;;;37.03;;
15114;SDS011;7658;51.456;7.622;2022-12-10T01:59:33;62.53;;;35.93;;
15114;SDS011;7658;51.456;7.622;2022-12-10T02:15:46;61.73;;;35.20;;
15114;SDS011;7658;51.456;7.622;2022-12-10T02:21:08;70.10;;;38.87;;
15114;SDS011;7658;51.456;7.622;2022-12-10T02:23:40;66.67;;;36.27;;
15114;SDS011;7658;51.456;7.622;2022-12-10T02:26:26;67.60;;;37.97;;
15114;SDS011;7658;51.456;7.622;2022-12-10T02:31:49;65.17;;;38.07;;
15114;SDS011;7658;51.456;7.622;2022-12-10T02:34:23;63.00;;;37.20;;
15114;SDS011;7658;51.456;7.622;2022-12-10T02:36:52;59.43;;;38.20;;
15114;SDS011;7658;51.456;7.622;2022-12-10T02:39:20;64.83;;;36.30;;
15114;SDS011;7658;51.456;7.622;2022-12-10T02:41:53;67.40;;;36.27;;
15114;SDS011;7658;51.456;7.622;2022-12-10T02:44:20;60.77;;;35.83;;
15114;SDS011;7658;51.456;7.622;2022-12-10T02:46:51;62.43;;;37.27;;
15114;SDS011;7658;51.456;7.622;2022-12-10T02:49:19;72.37;;;38.70;;
15114;SDS011;7658;51.456;7.622;2022-12-10T02:51:46;71.40;;;38.23;;
15114;SDS011;7658;51.456;7.622;2022-12-10T02:57:20;69.80;;;36.83;;
15114;SDS011;7658;51.456;7.622;2022-12-10T03:02:43;75.53;;;39.67;;
15114;SDS011;7658;51.456;7.622;2022-12-10T03:05:23;62.87;;;37.60;;
15114;SDS011;7658;51.456;7.622;2022-12-10T03:11:02;67.23;;;37.13;;
15114;SDS011;7658;51.456;7.622;2022-12-10T03:16:12;72.27;;;40.53;;
15114;SDS011;7658;51.456;7.622;2022-12-10T03:18:40;68.80;;;39.40;;
15114;SDS011;7658;51.456;7.622;2022-12-10T03:21:06;66.13;;;37.00;;
15114;SDS011;7658;51.456;7.622;2022-12-10T03:23:35;64.17;;;34.60;;
15114;SDS011;7658;51.456;7.622;2022-12-10T03:26:03;59.53;;;34.47;;
15114;SDS011;7658;51.456;7.622;2022-12-10T03:28:35;56.53;;;32.70;;
15114;SDS011;7658;51.456;7.622;2022-12-10T03:31:06;55.00;;;31.20;;
15114;SDS011;7658;51.456;7.622;2022-12-10T03:33:35;58.77;;;33.20;;
15114;SDS011;7658;51.456;7.622;2022-12-10T03:36:01;55.03;;;32.53;;
15114;SDS011;7658;51.456;7.622;2022-12-10T03:38:29;59.03;;;33.73;;
15114;SDS011;7658;51.456;7.622;2022-12-10T03:40:55;59.07;;;33.57;;
15114;SDS011;7658;51.456;7.622;2022-12-10T03:43:21;66.57;;;36.43;;
15114;SDS011;7658;51.456;7.622;2022-12-10T03:45:47;58.90;;;34.23;;
15114;SDS011;7658;51.456;7.622;2022-12-10T03:48:13;54.23;;;31.87;;
15114;SDS011;7658;51.456;7.622;2022-12-10T03:50:38;64.90;;;32.67;;
15114;SDS011;7658;51.456;7.622;2022-12-10T03:53:04;57.90;;;31.17;;
15114;SDS011;7658;51.456;7.622;2022-12-10T03:55:30;49.70;;;30.23;;
15114;SDS011;7658;51.456;7.622;2022-12-10T03:57:56;37.50;;;25.67;;
15114;SDS011;7658;51.456;7.622;2022-12-10T04:00:22;39.47;;;24.93;;
15114;SDS011;7658;51.456;7.622;2022-12-10T04:02:47;41.60;;;24.63;;
15114;SDS011;7658;51.456;7.622;2022-12-10T04:05:13;36.27;;;24.87;;
15114;SDS011;7658;51.456;7.622;2022-12-10T04:07:39;43.13;;;26.67;;
15114;SDS011;7658;51.456;7.622;2022-12-10T04:10:05;49.83;;;28.87;;
15114;SDS011;7658;51.456;7.622;2022-12-10T04:12:30;42.03;;;27.57;;
15114;SDS011;7658;51.456;7.622;2022-12-10T04:14:56;49.23;;;28.77;;
15114;SDS011;7658;51.456;7.622;2022-12-10T04:17:40;42.87;;;26.40;;
15114;SDS011;7658;51.456;7.622;2022-12-10T04:20:06;42.47;;;26.67;;
15114;SDS011;7658;51.456;7.622;2022-12-10T04:22:52;39.40;;;25.63;;
15114;SDS011;7658;51.456;7.622;2022-12-10T04:25:36;48.23;;;27.90;;
15114;SDS011;7658;51.456;7.622;2022-12-10T04:28:21;43.27;;;26.97;;
15114;SDS011;7658;51.456;7.622;2022-12-10T04:30:46;41.17;;;26.17;;
15114;SDS011;7658;51.456;7.622;2022-12-10T04:33:12;46.20;;;26.07;;
15114;SDS011;7658;51.456;7.622;2022-12-10T04:35:38;39.73;;;26.13;;
15114;SDS011;7658;51.456;7.622;2022-12-10T04:38:03;46.23;;;28.17;;
15114;SDS011;7658;51.456;7.622;2022-12-10T04:40:29;45.77;;;27.87;;
15114;SDS011;7658;51.456;7.622;2022-12-10T04:42:55;42.03;;;26.93;;
15114;SDS011;7658;51.456;7.622;2022-12-10T04:45:20;42.83;;;27.47;;
15114;SDS011;7658;51.456;7.622;2022-12-10T04:47:46;45.87;;;28.97;;
15114;SDS011;7658;51.456;7.622;2022-12-10T04:50:12;42.73;;;25.03;;
15114;SDS011;7658;51.456;7.622;2022-12-10T04:52:38;44.57;;;28.47;;
15114;SDS011;7658;51.456;7.622;2022-12-10T04:55:04;41.23;;;26.87;;
15114;SDS011;7658;51.456;7.622;2022-12-10T04:57:30;39.27;;;24.63;;
15114;SDS011;7658;51.456;7.622;2022-12-10T04:59:56;41.70;;;27.00;;
15114;SDS011;7658;51.456;7.622;2022-12-10T05:02:22;38.10;;;25.70;;
15114;SDS011;7658;51.456;7.622;2022-12-10T05:04:48;41.20;;;26.37;;
15114;SDS011;7658;51.456;7.622;2022-12-10T05:07:14;38.67;;;25.27;;
15114;SDS011;7658;51.456;7.622;2022-12-10T05:09:40;32.60;;;24.27;;
15114;SDS011;7658;51.456;7.622;2022-12-10T05:12:05;39.73;;;24.20;;
15114;SDS011;7658;51.456;7.622;2022-12-10T05:14:31;34.73;;;23.47;;
15114;SDS011;7658;51.456;7.622;2022-12-10T05:16:57;35.63;;;24.13;;
15114;SDS011;7658;51.456;7.622;2022-12-10T05:19:23;33.57;;;22.33;;
15114;SDS011;7658;51.456;7.622;2022-12-10T05:21:51;40.03;;;24.33;;
15114;SDS011;7658;51.456;7.622;2022-12-10T05:24:35;31.80;;;22.53;;
15114;SDS011;7658;51.456;7.622;2022-12-10T05:27:01;28.53;;;21.10;;
15114;SDS011;7658;51.456;7.622;2022-12-10T05:29:27;30.20;;;21.20;;
15114;SDS011;7658;51.456;7.622;2022-12-10T05:31:53;32.50;;;22.63;;
15114;SDS011;7658;51.456;7.622;2022-12-10T05:34:19;37.30;;;23.53;;
15114;SDS011;7658;51.456;7.622;2022-12-10T05:36:44;36.20;;;24.07;;
15114;SDS011;7658;51.456;7.622;2022-12-10T05:39:10;39.23;;;24.20;;
15114;SDS011;7658;51.456;7.622;2022-12-10T05:41:37;39.50;;;25.17;;
15114;SDS011;7658;51.456;7.622;2022-12-10T05:44:04;40.03;;;24.30;;
15114;SDS011;7658;51.456;7.622;2022-12-10T05:46:31;33.60;;;23.37;;
15114;SDS011;7658;51.456;7.622;2022-12-10T05:48:58;35.40;;;23.33;;
15114;SDS011;7658;51.456;7.622;2022-12-10T05:51:26;31.20;;;21.83;;
15114;SDS011;7658;51.456;7.622;2022-12-10T05:53:54;34.50;;;23.40;;
15114;SDS011;7658;51.456;7.622;2022-12-10T05:56:22;33.20;;;23.40;;
15114;SDS011;7658;51.456;7.622;2022-12-10T05:58:50;37.57;;;22.20;;
15114;SDS011;7658;51.456;7.622;2022-12-10T06:01:22;35.77;;;22.67;;
15114;SDS011;7658;51.456;7.622;2022-12-10T06:03:49;35.37;;;24.07;;
15114;SDS011;7658;51.456;7.622;2022-12-10T06:06:24;35.40;;;23.27;;
15114;SDS011;7658;51.456;7.622;2022-12-10T06:08:54;33.60;;;23.07;;
15114;SDS011;7658;51.456;7.622;2022-12-10T06:11:21;32.43;;;22.73;;
15114;SDS011;7658;51.456;7.622;2022-12-10T06:13:47;33.97;;;22.87;;
15114;SDS011;7658;51.456;7.622;2022-12-10T06:16:13;36.30;;;23.70;;
15114;SDS011;7658;51.456;7.622;2022-12-10T06:18:39;35.97;;;24.13;;
15114;SDS011;7658;51.456;7.622;2022-12-10T06:21:06;30.70;;;21.93;;
15114;SDS011;7658;51.456;7.622;2022-12-10T06:23:34;30.20;;;22.00;;
15114;SDS011;7658;51.456;7.622;2022-12-10T06:26:05;34.77;;;21.87;;
15114;SDS011;7658;51.456;7.622;2022-12-10T06:28:36;38.50;;;23.03;;
15114;SDS011;7658;51.456;7.622;2022-12-10T06:31:02;33.53;;;22.13;;
15114;SDS011;7658;51.456;7.622;2022-12-10T06:33:28;37.20;;;22.37;;
15114;SDS011;7658;51.456;7.622;2022-12-10T06:35:54;34.93;;;23.23;;
15114;SDS011;7658;51.456;7.622;2022-12-10T06:38:20;36.30;;;23.07;;
15114;SDS011;7658;51.456;7.622;2022-12-10T06:40:45;35.77;;;22.33;;
15114;SDS011;7658;51.456;7.622;2022-12-10T06:43:11;33.80;;;22.20;;
15114;SDS011;7658;51.456;7.622;2022-12-10T06:45:38;33.17;;;20.97;;
15114;SDS011;7658;51.456;7.622;2022-12-10T06:48:04;31.93;;;22.47;;
15114;SDS011;7658;51.456;7.622;2022-12-10T06:50:30;31.10;;;21.60;;
15114;SDS011;7658;51.456;7.622;2022-12-10T06:52:56;33.10;;;23.07;;
15114;SDS011;7658;51.456;7.622;2022-12-10T06:55:22;30.93;;;22.43;;
15114;SDS011;7658;51.456;7.622;2022-12-10T06:57:50;37.20;;;23.17;;
15114;SDS011;7658;51.456;7.622;2022-12-10T07:00:19;37.23;;;22.43;;
15114;SDS011;7658;51.456;7.622;2022-12-10T07:02:45;33.53;;;22.03;;
15114;SDS011;7658;51.456;7.622;2022-12-10T07:05:11;34.47;;;24.37;;
15114;SDS011;7658;51.456;7.622;2022-12-10T07:07:38;34.53;;;22.07;;
15114;SDS011;7658;51.456;7.622;2022-12-10T07:10:04;33.37;;;22.57;;
15114;SDS011;7658;51.456;7.622;2022-12-10T07:12:30;37.13;;;23.83;;
15114;SDS011;7658;51.456;7.622;2022-12-10T07:14:56;34.90;;;22.43;;
15114;SDS011;7658;51.456;7.622;2022-12-10T07:17:21;29.57;;;20.70;;
15114;SDS011;7658;51.456;7.622;2022-12-10T07:19:47;31.10;;;22.73;;
15114;SDS011;7658;51.456;7.622;2022-12-10T07:22:13;31.57;;;22.03;;
15114;SDS011;7658;51.456;7.622;2022-12-10T07:24:38;28.30;;;20.17;;
15114;SDS011;7658;51.456;7.622;2022-12-10T07:27:05;32.63;;;21.63;;
15114;SDS011;7658;51.456;7.622;2022-12-10T07:29:31;31.97;;;21.00;;
15114;SDS011;7658;51.456;7.622;2022-12-10T07:31:57;32.77;;;21.33;;
15114;SDS011;7658;51.456;7.622;2022-12-10T07:34:22;31.83;;;21.20;;
15114;SDS011;7658;51.456;7.622;2022-12-10T07:36:48;29.97;;;21.13;;
15114;SDS011;7658;51.456;7.622;2022-12-10T07:39:14;33.70;;;22.93;;
15114;SDS011;7658;51.456;7.622;2022-12-10T07:41:44;32.97;;;22.23;;
15114;SDS011;7658;51.456;7.622;2022-12-10T07:44:16;33.07;;;23.30;;
15114;SDS011;7658;51.456;7.622;2022-12-10T07:46:47;35.30;;;22.83;;
15114;SDS011;7658;51.456;7.622;2022-12-10T07:49:25;34.67;;;22.03;;
15114;SDS011;7658;51.456;7.622;2022-12-10T07:51:55;30.50;;;21.60;;
15114;SDS011;7658;51.456;7.622;2022-12-10T07:54:29;36.83;;;23.37;;
15114;SDS011;7658;51.456;7.622;2022-12-10T07:56:55;30.17;;;22.10;;
15114;SDS011;7658;51.456;7.622;2022-12-10T07:59:27;36.63;;;23.83;;
15114;SDS011;7658;51.456;7.622;2022-12-10T08:01:56;31.80;;;22.33;;
15114;SDS011;7658;51.456;7.622;2022-12-10T08:04:22;37.17;;;24.97;;
15114;SDS011;7658;51.456;7.622;2022-12-10T08:06:49;37.07;;;23.90;;
15114;SDS011;7658;51.456;7.622;2022-12-10T08:09:23;38.73;;;25.43;;
15114;SDS011;7658;51.456;7.622;2022-12-10T08:11:57;33.47;;;23.03;;
15114;SDS011;7658;51.456;7.622;2022-12-10T08:14:25;39.67;;;24.07;;
15114;SDS011;7658;51.456;7.622;2022-12-10T08:17:00;34.93;;;23.80;;
15114;SDS011;7658;51.456;7.622;2022-12-10T08:19:28;32.13;;;22.27;;
15114;SDS011;7658;51.456;7.622;2022-12-10T08:21:55;34.77;;;23.33;;
15114;SDS011;7658;51.456;7.622;2022-12-10T08:24:24;34.17;;;23.50;;
15114;SDS011;7658;51.456;7.622;2022-12-10T08:26:55;32.70;;;21.60;;
15114;SDS011;7658;51.456;7.622;2022-12-10T08:29:21;30.77;;;21.93;;
15114;SDS011;7658;51.456;7.622;2022-12-10T08:31:47;33.00;;;22.27;;
15114;SDS011;7658;51.456;7.622;2022-12-10T08:34:16;31.93;;;22.50;;
15114;SDS011;7658;51.456;7.622;2022-12-10T08:36:45;33.03;;;21.87;;
15114;SDS011;7658;51.456;7.622;2022-12-10T08:39:12;35.17;;;22.47;;
15114;SDS011;7658;51.456;7.622;2022-12-10T08:41:43;32.33;;;22.10;;
15114;SDS011;7658;51.456;7.622;2022-12-10T08:44:13;28.27;;;19.90;;
15114;SDS011;7658;51.456;7.622;2022-12-10T08:46:41;31.17;;;20.83;;
15114;SDS011;7658;51.456;7.622;2022-12-10T08:49:09;32.37;;;21.73;;
15114;SDS011;7658;51.456;7.622;2022-12-10T08:51:36;29.30;;;21.53;;
15114;SDS011;7658;51.456;7.622;2022-12-10T08:54:02;33.63;;;22.20;;
15114;SDS011;7658;51.456;7.622;2022-12-10T08:56:31;33.00;;;21.83;;
15114;SDS011;7658;51.456;7.622;2022-12-10T08:59:12;32.70;;;21.50;;
15114;SDS011;7658;51.456;7.622;2022-12-10T09:01:41;32.77;;;21.50;;
15114;SDS011;7658;51.456;7.622;2022-12-10T09:04:11;29.83;;;21.10;;
15114;SDS011;7658;51.456;7.622;2022-12-10T09:06:40;31.30;;;21.63;;
15114;SDS011;7658;51.456;7.622;2022-12-10T09:09:07;32.00;;;20.07;;
15114;SDS011;7658;51.456;7.622;2022-12-10T09:11:38;27.30;;;19.53;;
15114;SDS011;7658;51.456;7.622;2022-12-10T09:14:04;26.70;;;19.60;;
15114;SDS011;7658;51.456;7.622;2022-12-10T09:16:31;30.40;;;19.67;;
15114;SDS011;7658;51.456;7.622;2022-12-10T09:18:59;27.57;;;20.27;;
15114;SDS011;7658;51.456;7.622;2022-12-10T09:21:26;26.67;;;18.93;;
15114;SDS011;7658;51.456;7.622;2022-12-10T09:24:00;30.57;;;20.73;;
15114;SDS011;7658;51.456;7.622;2022-12-10T09:26:26;29.47;;;19.53;;
15114;SDS011;7658;51.456;7.622;2022-12-10T09:28:53;29.83;;;20.17;;
15114;SDS011;7658;51.456;7.622;2022-12-10T09:31:29;31.10;;;20.70;;
15114;SDS011;7658;51.456;7.622;2022-12-10T09:33:56;26.10;;;20.23;;
15114;SDS011;7658;51.456;7.622;2022-12-10T09:36:24;28.27;;;19.87;;
15114;SDS011;7658;51.456;7.622;2022-12-10T09:38:50;30.60;;;20.47;;
15114;SDS011;7658;51.456;7.622;2022-12-10T09:49:24;27.73;;;20.57;;
15114;SDS011;7658;51.456;7.622;2022-12-10T09:51:59;33.10;;;23.30;;
15114;SDS011;7658;51.456;7.622;2022-12-10T09:54:32;32.37;;;21.57;;
15114;SDS011;7658;51.456;7.622;2022-12-10T09:57:02;30.73;;;21.17;;
15114;SDS011;7658;51.456;7.622;2022-12-10T10:04:51;28.70;;;20.93;;
15114;SDS011;7658;51.456;7.622;2022-12-10T10:07:20;33.13;;;22.53;;
15114;SDS011;7658;51.456;7.622;2022-12-10T10:09:50;24.60;;;19.03;;
15114;SDS011;7658;51.456;7.622;2022-12-10T10:12:29;27.13;;;20.63;;
15114;SDS011;7658;51.456;7.622;2022-12-10T10:14:57;27.93;;;19.70;;
15114;SDS011;7658;51.456;7.622;2022-12-10T10:17:27;29.67;;;20.77;;
15114;SDS011;7658;51.456;7.622;2022-12-10T10:19:58;29.17;;;21.03;;
15114;SDS011;7658;51.456;7.622;2022-12-10T10:22:24;30.83;;;21.90;;
15114;SDS011;7658;51.456;7.622;2022-12-10T10:24:51;28.37;;;20.63;;
15114;SDS011;7658;51.456;7.622;2022-12-10T10:27:18;30.30;;;21.40;;
15114;SDS011;7658;51.456;7.622;2022-12-10T10:29:48;32.23;;;22.07;;
15114;SDS011;7658;51.456;7.622;2022-12-10T10:32:19;31.37;;;21.70;;
15114;SDS011;7658;51.456;7.622;2022-12-10T10:34:51;27.00;;;20.10;;
15114;SDS011;7658;51.456;7.622;2022-12-10T10:37:21;29.73;;;22.67;;
15114;SDS011;7658;51.456;7.622;2022-12-10T10:39:50;31.07;;;21.33;;
15114;SDS011;7658;51.456;7.622;2022-12-10T10:42:59;29.97;;;23.00;;
15114;SDS011;7658;51.456;7.622;2022-12-10T10:48:04;31.17;;;21.77;;
15114;SDS011;7658;51.456;7.622;2022-12-10T10:50:38;27.63;;;20.30;;
15114;SDS011;7658;51.456;7.622;2022-12-10T10:53:28;30.87;;;21.07;;
15114;SDS011;7658;51.456;7.622;2022-12-10T10:56:01;33.47;;;21.43;;
15114;SDS011;7658;51.456;7.622;2022-12-10T11:01:18;29.73;;;21.70;;
15114;SDS011;7658;51.456;7.622;2022-12-10T11:03:48;34.23;;;22.57;;
15114;SDS011;7658;51.456;7.622;2022-12-10T11:06:15;32.20;;;21.33;;
15114;SDS011;7658;51.456;7.622;2022-12-10T11:08:43;35.30;;;23.07;;
15114;SDS011;7658;51.456;7.622;2022-12-10T11:11:12;27.27;;;20.07;;
15114;SDS011;7658;51.456;7.622;2022-12-10T11:13:41;30.87;;;20.30;;
15114;SDS011;7658;51.456;7.622;2022-12-10T11:18:37;33.90;;;23.20;;
15114;SDS011;7658;51.456;7.622;2022-12-10T11:21:18;31.77;;;20.47;;
15114;SDS011;7658;51.456;7.622;2022-12-10T11:23:48;34.17;;;21.27;;
15114;SDS011;7658;51.456;7.622;2022-12-10T11:37:10;27.80;;;20.10;;
15114;SDS011;7658;51.456;7.622;2022-12-10T11:50:49;30.10;;;21.00;;
15114;SDS011;7658;51.456;7.622;2022-12-10T11:53:32;28.20;;;19.67;;
15114;SDS011;7658;51.456;7.622;2022-12-10T11:56:08;31.97;;;20.47;;
15114;SDS011;7658;51.456;7.622;2022-12-10T12:04:30;35.97;;;21.80;;
15114;SDS011;7658;51.456;7.622;2022-12-10T12:10:08;28.17;;;19.70;;
15114;SDS011;7658;51.456;7.622;2022-12-10T12:12:41;29.00;;;20.03;;
15114;SDS011;7658;51.456;7.622;2022-12-10T12:17:54;37.03;;;22.03;;
15114;SDS011;7658;51.456;7.622;2022-12-10T12:23:09;26.87;;;19.93;;
15114;SDS011;7658;51.456;7.622;2022-12-10T12:25:42;29.10;;;20.30;;
15114;SDS011;7658;51.456;7.622;2022-12-10T12:28:22;27.80;;;19.53;;
15114;SDS011;7658;51.456;7.622;2022-12-10T12:30:59;29.80;;;20.37;;
15114;SDS011;7658;51.456;7.622;2022-12-10T12:33:41;31.23;;;20.17;;
15114;SDS011;7658;51.456;7.622;2022-12-10T12:36:24;28.40;;;19.03;;
15114;SDS011;7658;51.456;7.622;2022-12-10T12:42:35;29.40;;;20.37;;
15114;SDS011;7658;51.456;7.622;2022-12-10T12:45:04;30.30;;;20.13;;
15114;SDS011;7658;51.456;7.622;2022-12-10T12:51:07;30.33;;;22.80;;
15114;SDS011;7658;51.456;7.622;2022-12-10T12:53:40;30.43;;;22.20;;
15114;SDS011;7658;51.456;7.622;2022-12-10T13:03:57;33.00;;;21.03;;
15114;SDS011;7658;51.456;7.622;2022-12-10T13:06:28;31.37;;;21.73;;
15114;SDS011;7658;51.456;7.622;2022-12-10T13:11:36;32.93;;;22.50;;
15114;SDS011;7658;51.456;7.622;2022-12-10T13:14:10;38.47;;;22.70;;
15114;SDS011;7658;51.456;7.622;2022-12-10T13:32:21;37.27;;;25.03;;
15114;SDS011;7658;51.456;7.622;2022-12-10T13:37:35;32.33;;;23.00;;
15114;SDS011;7658;51.456;7.622;2022-12-10T13:42:34;32.10;;;22.80;;
15114;SDS011;7658;51.456;7.622;2022-12-10T13:47:47;35.53;;;23.97;;
15114;SDS011;7658;51.456;7.622;2022-12-10T13:50:38;36.13;;;22.93;;
15114;SDS011;7658;51.456;7.622;2022-12-10T13:59:13;33.77;;;22.40;;
15114;SDS011;7658;51.456;7.622;2022-12-10T14:07:09;30.10;;;20.87;;
15114;SDS011;7658;51.456;7.622;2022-12-10T14:09:50;39.83;;;24.23;;
15114;SDS011;7658;51.456;7.622;2022-12-10T14:12:41;31.60;;;22.13;;
15114;SDS011;7658;51.456;7.622;2022-12-10T14:17:49;31.77;;;21.73;;
15114;SDS011;7658;51.456;7.622;2022-12-10T14:20:19;30.47;;;21.50;;
15114;SDS011;7658;51.456;7.622;2022-12-10T14:22:49;33.30;;;22.40;;
15114;SDS011;7658;51.456;7.622;2022-12-10T14:25:18;32.97;;;22.33;;
15114;SDS011;7658;51.456;7.622;2022-12-10T14:27:47;37.20;;;26.00;;
15114;SDS011;7658;51.456;7.622;2022-12-10T14:30:20;40.53;;;23.40;;
15114;SDS011;7658;51.456;7.622;2022-12-10T14:32:47;33.83;;;21.80;;
15114;SDS011;7658;51.456;7.622;2022-12-10T14:35:23;38.60;;;23.50;;
15114;SDS011;7658;51.456;7.622;2022-12-10T14:37:50;33.17;;;22.93;;
15114;SDS011;7658;51.456;7.622;2022-12-10T14:40:19;34.27;;;22.63;;
15114;SDS011;7658;51.456;7.622;2022-12-10T14:42:54;35.43;;;22.90;;
15114;SDS011;7658;51.456;7.622;2022-12-10T14:45:27;37.73;;;24.47;;
15114;SDS011;7658;51.456;7.622;2022-12-10T14:48:05;38.67;;;25.07;;
15114;SDS011;7658;51.456;7.622;2022-12-10T14:50:34;37.83;;;23.10;;
15114;SDS011;7658;51.456;7.622;2022-12-10T14:53:00;44.97;;;28.50;;
15114;SDS011;7658;51.456;7.622;2022-12-10T14:55:26;45.00;;;31.03;;
15114;SDS011;7658;51.456;7.622;2022-12-10T14:57:56;37.13;;;24.63;;
15114;SDS011;7658;51.456;7.622;2022-12-10T15:00:26;33.57;;;22.50;;
15114;SDS011;7658;51.456;7.622;2022-12-10T15:02:59;36.67;;;23.13;;
15114;SDS011;7658;51.456;7.622;2022-12-10T15:05:31;35.30;;;23.27;;
15114;SDS011;7658;51.456;7.622;2022-12-10T15:08:03;40.10;;;25.43;;
15114;SDS011;7658;51.456;7.622;2022-12-10T15:10:36;36.07;;;23.90;;
15114;SDS011;7658;51.456;7.622;2022-12-10T15:13:13;38.23;;;24.83;;
15114;SDS011;7658;51.456;7.622;2022-12-10T15:15:44;35.77;;;23.43;;
15114;SDS011;7658;51.456;7.622;2022-12-10T15:18:19;35.40;;;23.30;;
15114;SDS011;7658;51.456;7.622;2022-12-10T15:20:52;40.20;;;25.90;;
15114;SDS011;7658;51.456;7.622;2022-12-10T15:28:23;37.73;;;26.10;;
15114;SDS011;7658;51.456;7.622;2022-12-10T15:33:42;36.47;;;23.87;;
15114;SDS011;7658;51.456;7.622;2022-12-10T15:36:19;37.00;;;24.43;;
15114;SDS011;7658;51.456;7.622;2022-12-10T15:38:57;37.03;;;24.80;;
15114;SDS011;7658;51.456;7.622;2022-12-10T15:49:40;36.77;;;24.83;;
15114;SDS011;7658;51.456;7.622;2022-12-10T15:52:06;40.23;;;25.37;;
15114;SDS011;7658;51.456;7.622;2022-12-10T15:54:43;41.37;;;25.63;;
15114;SDS011;7658;51.456;7.622;2022-12-10T15:57:18;40.30;;;26.90;;
15114;SDS011;7658;51.456;7.622;2022-12-10T15:59:49;42.87;;;26.50;;
15114;SDS011;7658;51.456;7.622;2022-12-10T16:04:57;42.50;;;27.70;;
15114;SDS011;7658;51.456;7.622;2022-12-10T16:07:23;45.63;;;28.60;;
15114;SDS011;7658;51.456;7.622;2022-12-10T16:09:48;41.97;;;26.40;;
15114;SDS011;7658;51.456;7.622;2022-12-10T16:12:14;39.67;;;26.23;;
15114;SDS011;7658;51.456;7.622;2022-12-10T16:14:47;40.13;;;28.70;;
15114;SDS011;7658;51.456;7.622;2022-12-10T16:17:15;40.87;;;28.60;;
15114;SDS011;7658;51.456;7.622;2022-12-10T16:19:41;36.67;;;25.10;;
15114;SDS011;7658;51.456;7.622;2022-12-10T16:22:08;37.27;;;23.97;;
15114;SDS011;7658;51.456;7.622;2022-12-10T16:24:34;37.10;;;24.47;;
15114;SDS011;7658;51.456;7.622;2022-12-10T16:27:00;36.80;;;25.23;;
15114;SDS011;7658;51.456;7.622;2022-12-10T16:29:25;39.17;;;25.00;;
15114;SDS011;7658;51.456;7.622;2022-12-10T16:31:51;40.03;;;25.53;;
15114;SDS011;7658;51.456;7.622;2022-12-10T16:34:17;37.03;;;25.23;;
15114;SDS011;7658;51.456;7.622;2022-12-10T16:36:42;36.30;;;25.37;;
15114;SDS011;7658;51.456;7.622;2022-12-10T16:39:08;39.40;;;25.23;;
15114;SDS011;7658;51.456;7.622;2022-12-10T16:41:34;40.30;;;25.63;;
15114;SDS011;7658;51.456;7.622;2022-12-10T16:44:00;46.40;;;26.93;;
15114;SDS011;7658;51.456;7.622;2022-12-10T16:46:25;39.93;;;27.43;;
15114;SDS011;7658;51.456;7.622;2022-12-10T16:48:51;41.70;;;27.67;;
15114;SDS011;7658;51.456;7.622;2022-12-10T16:51:24;47.23;;;27.73;;
15114;SDS011;7658;51.456;7.622;2022-12-10T16:53:54;47.43;;;27.23;;
15114;SDS011;7658;51.456;7.622;2022-12-10T16:56:20;44.07;;;26.30;;
15114;SDS011;7658;51.456;7.622;2022-12-10T16:58:46;53.00;;;31.90;;
15114;SDS011;7658;51.456;7.622;2022-12-10T17:01:14;52.10;;;30.27;;
15114;SDS011;7658;51.456;7.622;2022-12-10T17:03:40;45.63;;;31.00;;
15114;SDS011;7658;51.456;7.622;2022-12-10T17:06:08;44.17;;;27.30;;
15114;SDS011;7658;51.456;7.622;2022-12-10T17:08:36;46.47;;;28.03;;
15114;SDS011;7658;51.456;7.622;2022-12-10T17:11:04;44.07;;;27.83;;
15114;SDS011;7658;51.456;7.622;2022-12-10T17:13:59;43.97;;;28.30;;
15114;SDS011;7658;51.456;7.622;2022-12-10T17:16:25;46.00;;;28.97;;
15114;SDS011;7658;51.456;7.622;2022-12-10T17:18:50;43.13;;;30.63;;
15114;SDS011;7658;51.456;7.622;2022-12-10T17:21:16;46.67;;;29.23;;
15114;SDS011;7658;51.456;7.622;2022-12-10T17:23:42;48.00;;;29.23;;
15114;SDS011;7658;51.456;7.622;2022-12-10T17:26:08;46.70;;;28.47;;
15114;SDS011;7658;51.456;7.622;2022-12-10T17:29:03;52.13;;;29.70;;
15114;SDS011;7658;51.456;7.622;2022-12-10T17:31:40;47.77;;;28.93;;